sensor_id;sensor_type;location;lat;lon;timestamp;pressure;altitude;pressure_sealevel;temperature;humidity
71344;BME280;59146;43.850;25.948;2022-08-01T00:01:12;100544.03;;;22.07;50.49
71344;BME280;59146;43.850;25.948;2022-08-01T00:03:38;100544.50;;;22.19;50.11
71344;BME280;59146;43.850;25.948;2022-08-01T00:06:04;100539.72;;;22.22;50.27
71344;BME280;59146;43.850;25.948;2022-08-01T00:08:32;100552.50;;;22.19;50.60
71344;BME280;59146;43.850;25.948;2022-08-01T00:10:57;100592.09;;;22.38;50.17
71344;BME280;59146;43.850;25.948;2022-08-01T00:13:23;100555.34;;;22.09;49.57
71344;BME280;59146;43.850;25.948;2022-08-01T00:15:48;100572.31;;;22.32;49.94
71344;BME280;59146;43.850;25.948;2022-08-01T00:18:14;100549.03;;;22.18;50.03
71344;BME280;59146;43.850;25.948;2022-08-01T00:20:39;100574.28;;;22.38;49.27
71344;BME280;59146;43.850;25.948;2022-08-01T00:23:04;100552.34;;;22.28;49.32
71344;BME280;59146;43.850;25.948;2022-08-01T00:25:30;100600.22;;;22.52;49.39
71344;BME280;59146;43.850;25.948;2022-08-01T00:27:55;100559.66;;;22.34;49.13
71344;BME280;59146;43.850;25.948;2022-08-01T00:30:21;100580.59;;;22.37;49.46
71344;BME280;59146;43.850;25.948;2022-08-01T00:32:46;100583.78;;;22.33;49.92
71344;BME280;59146;43.850;25.948;2022-08-01T00:35:12;100572.63;;;22.29;50.51
71344;BME280;59146;43.850;25.948;2022-08-01T00:37:38;100586.28;;;22.34;50.51
71344;BME280;59146;43.850;25.948;2022-08-01T00:40:05;100589.25;;;22.39;49.93
71344;BME280;59146;43.850;25.948;2022-08-01T00:42:30;100572.31;;;22.24;50.58
71344;BME280;59146;43.850;25.948;2022-08-01T00:44:56;100530.19;;;21.95;50.70
71344;BME280;59146;43.850;25.948;2022-08-01T00:47:21;100536.88;;;22.07;50.49
71344;BME280;59146;43.850;25.948;2022-08-01T00:49:46;100572.63;;;22.13;51.45
71344;BME280;59146;43.850;25.948;2022-08-01T00:52:12;100523.69;;;21.74;52.62
71344;BME280;59146;43.850;25.948;2022-08-01T00:54:38;100568.81;;;22.07;52.50
71344;BME280;59146;43.850;25.948;2022-08-01T00:57:04;100574.94;;;22.08;52.71
71344;BME280;59146;43.850;25.948;2022-08-01T00:59:30;100584.25;;;22.12;52.47
71344;BME280;59146;43.850;25.948;2022-08-01T01:01:55;100594.06;;;22.20;52.07
71344;BME280;59146;43.850;25.948;2022-08-01T01:04:21;100542.84;;;21.93;51.29
71344;BME280;59146;43.850;25.948;2022-08-01T01:14:47;100540.41;;;21.58;51.92
71344;BME280;59146;43.850;25.948;2022-08-01T01:17:20;100534.91;;;21.52;52.34
71344;BME280;59146;43.850;25.948;2022-08-01T01:19:51;100540.28;;;21.68;52.10
71344;BME280;59146;43.850;25.948;2022-08-01T01:22:24;100599.03;;;22.06;52.01
71344;BME280;59146;43.850;25.948;2022-08-01T01:30:12;100554.19;;;21.62;51.72
71344;BME280;59146;43.850;25.948;2022-08-01T01:32:43;100578.75;;;21.97;51.32
71344;BME280;59146;43.850;25.948;2022-08-01T01:35:15;100574.06;;;21.91;51.05
71344;BME280;59146;43.850;25.948;2022-08-01T01:37:43;100580.47;;;21.73;51.45
71344;BME280;59146;43.850;25.948;2022-08-01T01:40:11;100579.88;;;21.87;51.41
71344;BME280;59146;43.850;25.948;2022-08-01T01:42:38;100529.94;;;21.57;51.56
71344;BME280;59146;43.850;25.948;2022-08-01T01:45:06;100542.91;;;21.60;51.44
71344;BME280;59146;43.850;25.948;2022-08-01T01:47:33;100478.06;;;21.36;50.74
71344;BME280;59146;43.850;25.948;2022-08-01T01:49:59;100498.72;;;21.51;50.60
71344;BME280;59146;43.850;25.948;2022-08-01T01:52:26;100513.19;;;21.64;51.47
71344;BME280;59146;43.850;25.948;2022-08-01T01:54:52;100514.97;;;21.56;50.80
71344;BME280;59146;43.850;25.948;2022-08-01T01:57:19;100545.31;;;21.87;51.47
71344;BME280;59146;43.850;25.948;2022-08-01T01:59:46;100530.16;;;21.71;51.15
71344;BME280;59146;43.850;25.948;2022-08-01T02:02:14;100543.28;;;21.73;52.00
71344;BME280;59146;43.850;25.948;2022-08-01T02:04:42;100497.22;;;21.48;51.51
71344;BME280;59146;43.850;25.948;2022-08-01T02:07:10;100536.63;;;21.69;51.16
71344;BME280;59146;43.850;25.948;2022-08-01T02:09:40;100530.81;;;21.65;52.11
71344;BME280;59146;43.850;25.948;2022-08-01T02:12:10;100507.50;;;21.51;52.37
71344;BME280;59146;43.850;25.948;2022-08-01T02:14:37;100564.53;;;21.65;52.44
71344;BME280;59146;43.850;25.948;2022-08-01T02:17:03;100469.53;;;21.09;52.68
71344;BME280;59146;43.850;25.948;2022-08-01T02:19:29;100489.88;;;21.34;52.54
71344;BME280;59146;43.850;25.948;2022-08-01T02:21:58;100515.63;;;21.50;51.59
71344;BME280;59146;43.850;25.948;2022-08-01T02:27:33;100443.41;;;20.96;51.32
71344;BME280;59146;43.850;25.948;2022-08-01T02:30:02;100561.88;;;21.65;51.38
71344;BME280;59146;43.850;25.948;2022-08-01T02:32:38;100548.16;;;21.35;52.02
71344;BME280;59146;43.850;25.948;2022-08-01T02:35:07;100511.19;;;21.08;52.45
71344;BME280;59146;43.850;25.948;2022-08-01T02:37:37;100514.31;;;21.04;52.96
71344;BME280;59146;43.850;25.948;2022-08-01T02:40:04;100527.34;;;20.97;54.38
71344;BME280;59146;43.850;25.948;2022-08-01T02:42:34;100509.38;;;20.83;55.12
71344;BME280;59146;43.850;25.948;2022-08-01T02:45:04;100508.09;;;20.95;55.12
71344;BME280;59146;43.850;25.948;2022-08-01T02:47:31;100497.75;;;20.84;55.91
71344;BME280;59146;43.850;25.948;2022-08-01T02:49:59;100508.16;;;21.03;56.11
71344;BME280;59146;43.850;25.948;2022-08-01T02:52:26;100543.78;;;21.26;55.84
71344;BME280;59146;43.850;25.948;2022-08-01T02:54:54;100542.34;;;21.40;53.36
71344;BME280;59146;43.850;25.948;2022-08-01T02:57:21;100516.25;;;21.35;52.95
71344;BME280;59146;43.850;25.948;2022-08-01T02:59:47;100490.31;;;21.21;52.26
71344;BME280;59146;43.850;25.948;2022-08-01T03:02:15;100503.47;;;21.39;51.91
71344;BME280;59146;43.850;25.948;2022-08-01T03:04:41;100522.47;;;21.52;51.46
71344;BME280;59146;43.850;25.948;2022-08-01T03:07:09;100461.59;;;21.17;51.73
71344;BME280;59146;43.850;25.948;2022-08-01T03:09:45;100488.38;;;21.40;51.07
71344;BME280;59146;43.850;25.948;2022-08-01T03:12:24;100517.97;;;21.45;51.75
71344;BME280;59146;43.850;25.948;2022-08-01T03:14:52;100504.69;;;21.45;51.68
71344;BME280;59146;43.850;25.948;2022-08-01T03:17:20;100536.97;;;21.66;52.08
71344;BME280;59146;43.850;25.948;2022-08-01T03:19:47;100467.09;;;21.23;51.67
71344;BME280;59146;43.850;25.948;2022-08-01T03:22:14;100539.94;;;21.63;50.74
71344;BME280;59146;43.850;25.948;2022-08-01T03:24:42;100519.34;;;21.65;49.55
71344;BME280;59146;43.850;25.948;2022-08-01T03:27:10;100470.97;;;22.74;46.64
71344;BME280;59146;43.850;25.948;2022-08-01T03:29:37;100489.84;;;24.32;42.91
71344;BME280;59146;43.850;25.948;2022-08-01T03:32:05;100498.22;;;25.61;39.51
71344;BME280;59146;43.850;25.948;2022-08-01T03:34:31;100507.94;;;26.53;37.92
71344;BME280;59146;43.850;25.948;2022-08-01T03:37:18;100535.97;;;27.60;36.34
71344;BME280;59146;43.850;25.948;2022-08-01T03:39:50;100535.91;;;28.59;34.19
71344;BME280;59146;43.850;25.948;2022-08-01T03:42:19;100492.25;;;28.83;33.15
71344;BME280;59146;43.850;25.948;2022-08-01T03:44:59;100514.31;;;29.18;32.58
71344;BME280;59146;43.850;25.948;2022-08-01T03:47:31;100490.75;;;29.00;32.93
71344;BME280;59146;43.850;25.948;2022-08-01T03:49:58;100500.69;;;30.20;31.05
71344;BME280;59146;43.850;25.948;2022-08-01T03:52:27;100526.66;;;30.64;30.45
71344;BME280;59146;43.850;25.948;2022-08-01T03:54:55;100514.25;;;30.99;29.66
71344;BME280;59146;43.850;25.948;2022-08-01T03:57:23;100507.25;;;30.55;30.31
71344;BME280;59146;43.850;25.948;2022-08-01T03:59:51;100535.25;;;31.33;29.55
71344;BME280;59146;43.850;25.948;2022-08-01T04:02:17;100503.19;;;32.37;27.90
71344;BME280;59146;43.850;25.948;2022-08-01T04:04:43;100527.09;;;32.98;26.96
71344;BME280;59146;43.850;25.948;2022-08-01T04:07:26;100465.16;;;32.50;26.67
71344;BME280;59146;43.850;25.948;2022-08-01T04:09:52;100507.56;;;32.73;26.85
71344;BME280;59146;43.850;25.948;2022-08-01T04:12:18;100501.78;;;32.93;26.08
71344;BME280;59146;43.850;25.948;2022-08-01T04:14:44;100520.38;;;33.80;25.13
71344;BME280;59146;43.850;25.948;2022-08-01T04:17:09;100480.78;;;33.96;24.62
71344;BME280;59146;43.850;25.948;2022-08-01T04:19:35;100471.47;;;33.87;25.23
71344;BME280;59146;43.850;25.948;2022-08-01T04:22:00;100527.94;;;33.95;24.76
71344;BME280;59146;43.850;25.948;2022-08-01T04:24:28;100526.75;;;34.19;25.05
71344;BME280;59146;43.850;25.948;2022-08-01T04:26:56;100500.69;;;34.68;24.01
71344;BME280;59146;43.850;25.948;2022-08-01T04:29:24;100478.19;;;34.89;22.82
71344;BME280;59146;43.850;25.948;2022-08-01T04:31:53;100477.38;;;34.17;23.75
71344;BME280;59146;43.850;25.948;2022-08-01T04:34:21;100517.44;;;34.48;23.62
71344;BME280;59146;43.850;25.948;2022-08-01T04:36:50;100487.59;;;34.10;24.11
71344;BME280;59146;43.850;25.948;2022-08-01T04:39:18;100495.88;;;34.91;22.76
71344;BME280;59146;43.850;25.948;2022-08-01T04:41:45;100519.44;;;34.69;23.68
71344;BME280;59146;43.850;25.948;2022-08-01T04:44:13;100494.00;;;34.04;24.02
71344;BME280;59146;43.850;25.948;2022-08-01T04:46:38;100499.91;;;34.01;24.19
71344;BME280;59146;43.850;25.948;2022-08-01T04:49:06;100514.59;;;34.55;23.83
71344;BME280;59146;43.850;25.948;2022-08-01T04:51:34;100464.06;;;33.99;24.09
71344;BME280;59146;43.850;25.948;2022-08-01T04:53:59;100489.78;;;34.29;23.79
71344;BME280;59146;43.850;25.948;2022-08-01T04:56:26;100482.56;;;34.35;23.42
71344;BME280;59146;43.850;25.948;2022-08-01T04:58:52;100451.50;;;33.93;24.07
71344;BME280;59146;43.850;25.948;2022-08-01T05:01:38;100536.91;;;33.95;23.98
71344;BME280;59146;43.850;25.948;2022-08-01T05:04:03;100498.72;;;33.97;23.65
71344;BME280;59146;43.850;25.948;2022-08-01T05:06:29;100494.63;;;32.98;25.56
71344;BME280;59146;43.850;25.948;2022-08-01T05:08:54;100465.44;;;31.36;27.04
71344;BME280;59146;43.850;25.948;2022-08-01T05:11:20;100514.72;;;31.50;27.72
71344;BME280;59146;43.850;25.948;2022-08-01T05:13:47;100498.66;;;30.83;28.14
71344;BME280;59146;43.850;25.948;2022-08-01T05:16:13;100486.00;;;31.19;28.31
71344;BME280;59146;43.850;25.948;2022-08-01T05:18:38;100470.63;;;29.60;28.91
71344;BME280;59146;43.850;25.948;2022-08-01T05:21:03;100468.53;;;29.62;29.46
71344;BME280;59146;43.850;25.948;2022-08-01T05:23:29;100531.13;;;30.51;29.51
71344;BME280;59146;43.850;25.948;2022-08-01T05:25:54;100474.13;;;29.30;30.06
71344;BME280;59146;43.850;25.948;2022-08-01T05:28:19;100478.28;;;29.26;30.59
71344;BME280;59146;43.850;25.948;2022-08-01T05:30:45;100501.88;;;29.24;31.00
71344;BME280;59146;43.850;25.948;2022-08-01T05:33:10;100467.88;;;28.78;31.39
71344;BME280;59146;43.850;25.948;2022-08-01T05:35:36;100482.09;;;28.98;31.63
71344;BME280;59146;43.850;25.948;2022-08-01T05:38:01;100525.19;;;29.43;30.74
71344;BME280;59146;43.850;25.948;2022-08-01T05:40:27;100481.00;;;29.13;30.86
71344;BME280;59146;43.850;25.948;2022-08-01T05:42:52;100469.34;;;29.32;31.14
71344;BME280;59146;43.850;25.948;2022-08-01T05:45:18;100483.50;;;29.52;30.46
71344;BME280;59146;43.850;25.948;2022-08-01T05:48:06;100521.72;;;30.05;30.01
71344;BME280;59146;43.850;25.948;2022-08-01T05:50:32;100423.69;;;29.19;30.22
71344;BME280;59146;43.850;25.948;2022-08-01T05:52:58;100488.97;;;28.55;31.46
71344;BME280;59146;43.850;25.948;2022-08-01T05:55:24;100455.31;;;28.46;31.55
71344;BME280;59146;43.850;25.948;2022-08-01T05:57:49;100488.78;;;28.44;31.58
71344;BME280;59146;43.850;25.948;2022-08-01T06:00:17;100480.53;;;28.58;31.18
71344;BME280;59146;43.850;25.948;2022-08-01T06:02:42;100497.44;;;28.78;31.03
71344;BME280;59146;43.850;25.948;2022-08-01T06:05:09;100481.09;;;28.86;30.69
71344;BME280;59146;43.850;25.948;2022-08-01T06:07:35;100506.47;;;29.03;30.82
71344;BME280;59146;43.850;25.948;2022-08-01T06:10:00;100488.13;;;28.74;31.53
71344;BME280;59146;43.850;25.948;2022-08-01T06:12:26;100522.28;;;28.74;31.74
71344;BME280;59146;43.850;25.948;2022-08-01T06:14:51;100523.31;;;28.60;32.03
71344;BME280;59146;43.850;25.948;2022-08-01T06:17:22;100501.00;;;28.20;32.56
71344;BME280;59146;43.850;25.948;2022-08-01T06:19:48;100506.56;;;28.18;33.30
71344;BME280;59146;43.850;25.948;2022-08-01T06:22:48;100485.06;;;28.51;32.58
71344;BME280;59146;43.850;25.948;2022-08-01T06:34:11;100434.66;;;27.75;33.47
71344;BME280;59146;43.850;25.948;2022-08-01T06:36:39;100495.19;;;28.75;33.13
71344;BME280;59146;43.850;25.948;2022-08-01T06:39:04;100527.97;;;29.17;32.34
71344;BME280;59146;43.850;25.948;2022-08-01T06:41:29;100519.38;;;28.75;33.88
71344;BME280;59146;43.850;25.948;2022-08-01T06:43:55;100518.13;;;28.45;33.33
71344;BME280;59146;43.850;25.948;2022-08-01T06:46:20;100476.78;;;27.94;34.11
71344;BME280;59146;43.850;25.948;2022-08-01T06:48:46;100478.66;;;28.65;33.55
71344;BME280;59146;43.850;25.948;2022-08-01T06:51:11;100507.34;;;28.84;32.83
71344;BME280;59146;43.850;25.948;2022-08-01T06:53:40;100512.38;;;28.61;33.17
71344;BME280;59146;43.850;25.948;2022-08-01T06:56:06;100508.19;;;28.72;34.22
71344;BME280;59146;43.850;25.948;2022-08-01T06:58:34;100487.56;;;29.30;32.86
71344;BME280;59146;43.850;25.948;2022-08-01T07:01:00;100521.00;;;29.53;32.64
71344;BME280;59146;43.850;25.948;2022-08-01T07:03:27;100534.56;;;29.21;34.08
71344;BME280;59146;43.850;25.948;2022-08-01T07:05:52;100459.63;;;29.31;33.66
71344;BME280;59146;43.850;25.948;2022-08-01T07:08:18;100467.31;;;29.21;34.92
71344;BME280;59146;43.850;25.948;2022-08-01T07:10:43;100480.72;;;29.34;33.63
71344;BME280;59146;43.850;25.948;2022-08-01T07:13:09;100465.59;;;29.33;34.67
71344;BME280;59146;43.850;25.948;2022-08-01T07:15:34;100489.19;;;29.75;34.38
71344;BME280;59146;43.850;25.948;2022-08-01T07:17:59;100477.44;;;29.25;35.47
71344;BME280;59146;43.850;25.948;2022-08-01T07:20:29;100513.47;;;29.62;35.35
71344;BME280;59146;43.850;25.948;2022-08-01T07:22:54;100496.81;;;29.85;34.57
71344;BME280;59146;43.850;25.948;2022-08-01T07:25:20;100480.06;;;30.07;35.13
71344;BME280;59146;43.850;25.948;2022-08-01T07:27:45;100528.94;;;30.11;35.55
71344;BME280;59146;43.850;25.948;2022-08-01T07:30:11;100493.72;;;29.37;36.45
71344;BME280;59146;43.850;25.948;2022-08-01T07:32:37;100527.19;;;29.54;36.87
71344;BME280;59146;43.850;25.948;2022-08-01T07:35:03;100501.84;;;29.30;37.54
71344;BME280;59146;43.850;25.948;2022-08-01T07:37:28;100517.09;;;28.72;39.08
71344;BME280;59146;43.850;25.948;2022-08-01T07:39:54;100535.91;;;28.66;40.06
71344;BME280;59146;43.850;25.948;2022-08-01T07:42:19;100461.09;;;28.69;39.90
71344;BME280;59146;43.850;25.948;2022-08-01T07:44:44;100494.06;;;29.02;39.94
71344;BME280;59146;43.850;25.948;2022-08-01T07:47:10;100490.22;;;29.36;38.98
71344;BME280;59146;43.850;25.948;2022-08-01T07:49:35;100486.16;;;29.21;39.82
71344;BME280;59146;43.850;25.948;2022-08-01T07:52:01;100492.88;;;28.85;41.39
71344;BME280;59146;43.850;25.948;2022-08-01T07:54:26;100507.81;;;28.42;43.46
71344;BME280;59146;43.850;25.948;2022-08-01T07:56:53;100505.91;;;27.30;45.25
71344;BME280;59146;43.850;25.948;2022-08-01T07:59:19;100535.53;;;27.49;45.66
71344;BME280;59146;43.850;25.948;2022-08-01T08:01:50;100501.81;;;28.14;44.21
71344;BME280;59146;43.850;25.948;2022-08-01T08:04:17;100531.28;;;29.05;42.35
71344;BME280;59146;43.850;25.948;2022-08-01T08:06:42;100490.81;;;28.87;42.50
71344;BME280;59146;43.850;25.948;2022-08-01T08:09:08;100476.81;;;28.20;45.03
71344;BME280;59146;43.850;25.948;2022-08-01T08:11:33;100503.56;;;27.68;46.35
71344;BME280;59146;43.850;25.948;2022-08-01T08:13:59;100489.56;;;27.79;45.83
71344;BME280;59146;43.850;25.948;2022-08-01T08:16:24;100526.00;;;28.73;43.50
71344;BME280;59146;43.850;25.948;2022-08-01T08:18:50;100490.13;;;29.12;41.99
71344;BME280;59146;43.850;25.948;2022-08-01T08:21:15;100481.47;;;28.96;42.30
71344;BME280;59146;43.850;25.948;2022-08-01T08:23:40;100519.97;;;28.84;42.51
71344;BME280;59146;43.850;25.948;2022-08-01T08:26:24;100495.69;;;29.03;42.15
71344;BME280;59146;43.850;25.948;2022-08-01T08:28:50;100521.81;;;28.96;41.53
71344;BME280;59146;43.850;25.948;2022-08-01T08:31:15;100440.03;;;28.40;41.48
71344;BME280;59146;43.850;25.948;2022-08-01T08:33:41;100484.25;;;28.57;41.06
71344;BME280;59146;43.850;25.948;2022-08-01T08:36:06;100510.94;;;29.36;39.92
71344;BME280;59146;43.850;25.948;2022-08-01T08:38:32;100530.00;;;29.15;40.17
71344;BME280;59146;43.850;25.948;2022-08-01T08:40:57;100504.59;;;29.11;39.39
71344;BME280;59146;43.850;25.948;2022-08-01T08:43:24;100521.28;;;29.32;38.38
71344;BME280;59146;43.850;25.948;2022-08-01T08:45:50;100488.34;;;28.73;40.04
71344;BME280;59146;43.850;25.948;2022-08-01T08:48:16;100485.91;;;28.58;41.04
71344;BME280;59146;43.850;25.948;2022-08-01T08:50:43;100520.41;;;28.68;41.96
71344;BME280;59146;43.850;25.948;2022-08-01T08:53:13;100517.72;;;28.28;41.63
71344;BME280;59146;43.850;25.948;2022-08-01T08:55:41;100540.47;;;28.59;39.22
71344;BME280;59146;43.850;25.948;2022-08-01T08:58:12;100483.41;;;28.50;38.85
71344;BME280;59146;43.850;25.948;2022-08-01T09:00:41;100546.56;;;29.25;38.29
71344;BME280;59146;43.850;25.948;2022-08-01T09:03:06;100527.69;;;29.38;37.22
71344;BME280;59146;43.850;25.948;2022-08-01T09:05:32;100381.72;;;28.60;36.75
71344;BME280;59146;43.850;25.948;2022-08-01T09:07:57;100435.41;;;28.86;38.27
71344;BME280;59146;43.850;25.948;2022-08-01T09:10:23;100543.06;;;29.62;37.63
71344;BME280;59146;43.850;25.948;2022-08-01T09:13:13;100501.28;;;29.59;36.09
71344;BME280;59146;43.850;25.948;2022-08-01T09:15:39;100544.00;;;29.87;36.07
71344;BME280;59146;43.850;25.948;2022-08-01T09:18:06;100477.75;;;29.48;35.57
71344;BME280;59146;43.850;25.948;2022-08-01T09:20:32;100410.88;;;29.07;35.55
71344;BME280;59146;43.850;25.948;2022-08-01T09:23:00;100527.97;;;29.61;35.10
71344;BME280;59146;43.850;25.948;2022-08-01T09:25:25;100535.19;;;29.67;35.44
71344;BME280;59146;43.850;25.948;2022-08-01T09:28:05;100504.44;;;29.50;34.88
71344;BME280;59146;43.850;25.948;2022-08-01T09:30:38;100532.13;;;30.01;34.74
71344;BME280;59146;43.850;25.948;2022-08-01T09:33:05;100491.13;;;29.99;34.41
71344;BME280;59146;43.850;25.948;2022-08-01T09:35:33;100475.94;;;29.80;35.36
71344;BME280;59146;43.850;25.948;2022-08-01T09:38:19;100531.41;;;30.43;34.52
71344;BME280;59146;43.850;25.948;2022-08-01T09:43:15;100476.53;;;30.07;35.20
71344;BME280;59146;43.850;25.948;2022-08-01T09:45:40;100498.53;;;30.35;35.70
71344;BME280;59146;43.850;25.948;2022-08-01T09:48:09;100481.06;;;30.62;33.55
71344;BME280;59146;43.850;25.948;2022-08-01T09:50:40;100500.50;;;30.89;32.99
71344;BME280;59146;43.850;25.948;2022-08-01T09:53:06;100484.69;;;30.49;33.32
71344;BME280;59146;43.850;25.948;2022-08-01T09:55:31;100528.53;;;30.38;34.16
71344;BME280;59146;43.850;25.948;2022-08-01T09:57:57;100524.19;;;29.75;35.76
71344;BME280;59146;43.850;25.948;2022-08-01T10:00:26;100475.38;;;29.65;35.41
71344;BME280;59146;43.850;25.948;2022-08-01T10:02:51;100515.81;;;29.52;36.38
71344;BME280;59146;43.850;25.948;2022-08-01T10:05:29;100552.13;;;29.80;36.07
71344;BME280;59146;43.850;25.948;2022-08-01T10:07:58;100511.63;;;29.56;35.41
71344;BME280;59146;43.850;25.948;2022-08-01T10:10:27;100498.94;;;29.32;35.60
71344;BME280;59146;43.850;25.948;2022-08-01T10:13:12;100523.25;;;28.92;36.86
71344;BME280;59146;43.850;25.948;2022-08-01T10:15:38;100547.22;;;29.07;36.90
71344;BME280;59146;43.850;25.948;2022-08-01T10:18:06;100508.53;;;29.01;36.52
71344;BME280;59146;43.850;25.948;2022-08-01T10:20:33;100508.34;;;29.03;36.26
71344;BME280;59146;43.850;25.948;2022-08-01T10:23:01;100540.41;;;28.91;37.26
71344;BME280;59146;43.850;25.948;2022-08-01T10:25:28;100523.72;;;28.30;38.97
71344;BME280;59146;43.850;25.948;2022-08-01T10:27:55;100537.56;;;28.21;39.68
71344;BME280;59146;43.850;25.948;2022-08-01T10:30:22;100513.94;;;27.90;40.61
71344;BME280;59146;43.850;25.948;2022-08-01T10:32:52;100493.09;;;27.92;39.10
71344;BME280;59146;43.850;25.948;2022-08-01T10:35:18;100532.19;;;28.08;40.34
71344;BME280;59146;43.850;25.948;2022-08-01T10:37:45;100501.53;;;27.83;42.69
71344;BME280;59146;43.850;25.948;2022-08-01T10:40:14;100503.00;;;27.85;44.07
71344;BME280;59146;43.850;25.948;2022-08-01T10:42:42;100465.34;;;27.39;44.43
71344;BME280;59146;43.850;25.948;2022-08-01T10:45:09;100455.53;;;27.12;45.25
71344;BME280;59146;43.850;25.948;2022-08-01T10:48:22;100496.16;;;27.70;44.69
71344;BME280;59146;43.850;25.948;2022-08-01T10:51:08;100515.19;;;27.88;44.20
71344;BME280;59146;43.850;25.948;2022-08-01T10:53:33;100485.44;;;27.83;43.73
71344;BME280;59146;43.850;25.948;2022-08-01T10:56:02;100520.63;;;28.40;43.07
71344;BME280;59146;43.850;25.948;2022-08-01T10:58:34;100468.16;;;28.24;43.05
71344;BME280;59146;43.850;25.948;2022-08-01T11:03:41;100517.53;;;28.69;41.00
71344;BME280;59146;43.850;25.948;2022-08-01T11:06:15;100539.16;;;29.00;40.33
71344;BME280;59146;43.850;25.948;2022-08-01T11:08:42;100442.50;;;28.42;40.22
71344;BME280;59146;43.850;25.948;2022-08-01T11:11:15;100491.22;;;28.84;39.86
71344;BME280;59146;43.850;25.948;2022-08-01T11:16:36;100478.00;;;28.76;38.77
71344;BME280;59146;43.850;25.948;2022-08-01T11:19:06;100400.53;;;28.47;38.68
71344;BME280;59146;43.850;25.948;2022-08-01T11:22:02;100538.59;;;29.87;37.03
71344;BME280;59146;43.850;25.948;2022-08-01T11:27:17;100490.31;;;29.92;36.77
71344;BME280;59146;43.850;25.948;2022-08-01T11:29:43;100485.78;;;29.93;36.38
71344;BME280;59146;43.850;25.948;2022-08-01T11:32:24;100507.78;;;29.83;36.79
71344;BME280;59146;43.850;25.948;2022-08-01T11:34:56;100493.59;;;30.01;36.59
71344;BME280;59146;43.850;25.948;2022-08-01T11:37:28;100473.28;;;29.73;37.41
71344;BME280;59146;43.850;25.948;2022-08-01T11:42:48;100495.72;;;29.92;37.98
71344;BME280;59146;43.850;25.948;2022-08-01T11:45:14;100510.19;;;30.22;36.85
71344;BME280;59146;43.850;25.948;2022-08-01T11:47:50;100533.31;;;30.05;36.22
71344;BME280;59146;43.850;25.948;2022-08-01T11:50:29;100524.88;;;30.33;35.98
71344;BME280;59146;43.850;25.948;2022-08-01T11:53:03;100525.97;;;30.93;35.47
71344;BME280;59146;43.850;25.948;2022-08-01T11:55:30;100459.31;;;30.75;34.96
71344;BME280;59146;43.850;25.948;2022-08-01T11:58:06;100516.66;;;31.07;34.51
71344;BME280;59146;43.850;25.948;2022-08-01T12:00:33;100442.66;;;30.67;34.39
71344;BME280;59146;43.850;25.948;2022-08-01T12:03:08;100498.22;;;31.40;33.42
71344;BME280;59146;43.850;25.948;2022-08-01T12:05:36;100446.03;;;31.46;32.68
71344;BME280;59146;43.850;25.948;2022-08-01T12:08:03;100485.28;;;32.01;31.87
71344;BME280;59146;43.850;25.948;2022-08-01T12:10:35;100508.91;;;32.18;31.75
71344;BME280;59146;43.850;25.948;2022-08-01T12:13:06;100499.03;;;32.00;31.89
71344;BME280;59146;43.850;25.948;2022-08-01T12:15:40;100454.00;;;31.41;31.86
71344;BME280;59146;43.850;25.948;2022-08-01T12:18:08;100458.91;;;31.14;32.52
71344;BME280;59146;43.850;25.948;2022-08-01T12:20:45;100474.47;;;31.60;31.70
71344;BME280;59146;43.850;25.948;2022-08-01T12:24:03;100492.59;;;31.71;30.79
71344;BME280;59146;43.850;25.948;2022-08-01T12:26:40;100470.00;;;30.88;32.81
71344;BME280;59146;43.850;25.948;2022-08-01T12:29:07;100455.31;;;29.92;34.11
71344;BME280;59146;43.850;25.948;2022-08-01T12:31:43;100363.34;;;29.01;35.17
71344;BME280;59146;43.850;25.948;2022-08-01T12:34:30;100473.25;;;30.05;34.34
71344;BME280;59146;43.850;25.948;2022-08-01T12:37:05;100504.63;;;30.17;34.89
71344;BME280;59146;43.850;25.948;2022-08-01T12:39:34;100507.47;;;30.29;34.85
71344;BME280;59146;43.850;25.948;2022-08-01T12:42:18;100487.41;;;30.68;34.37
71344;BME280;59146;43.850;25.948;2022-08-01T12:44:45;100443.25;;;30.69;32.37
71344;BME280;59146;43.850;25.948;2022-08-01T12:47:13;100447.19;;;31.02;32.70
71344;BME280;59146;43.850;25.948;2022-08-01T12:49:40;100406.34;;;31.17;31.47
71344;BME280;59146;43.850;25.948;2022-08-01T12:52:06;100436.59;;;31.37;32.02
71344;BME280;59146;43.850;25.948;2022-08-01T12:55:11;100486.22;;;31.18;32.65
71344;BME280;59146;43.850;25.948;2022-08-01T12:57:40;100459.91;;;30.41;33.92
71344;BME280;59146;43.850;25.948;2022-08-01T13:00:21;100463.34;;;30.91;33.47
71344;BME280;59146;43.850;25.948;2022-08-01T13:02:49;100472.97;;;31.16;32.45
71344;BME280;59146;43.850;25.948;2022-08-01T13:05:15;100492.06;;;31.33;32.45
71344;BME280;59146;43.850;25.948;2022-08-01T13:10:09;100381.53;;;30.79;31.89
71344;BME280;59146;43.850;25.948;2022-08-01T13:12:35;100450.81;;;30.35;33.00
71344;BME280;59146;43.850;25.948;2022-08-01T13:15:22;100432.91;;;30.66;33.09
71344;BME280;59146;43.850;25.948;2022-08-01T13:17:49;100489.81;;;31.30;31.92
71344;BME280;59146;43.850;25.948;2022-08-01T13:20:48;100476.84;;;31.68;30.47
71344;BME280;59146;43.850;25.948;2022-08-01T13:23:18;100450.63;;;31.57;30.77
71344;BME280;59146;43.850;25.948;2022-08-01T13:25:53;100431.53;;;31.70;30.79
71344;BME280;59146;43.850;25.948;2022-08-01T13:28:23;100381.53;;;31.26;32.10
71344;BME280;59146;43.850;25.948;2022-08-01T13:30:54;100449.69;;;30.86;31.72